aviador You're here:

CYLL Decoded Metar

LLOYDMINSTER in AB, CANADA
Report Time2018-02-22 14:00:00
UTC Time2018-02-22 14:44:46
Flight Rules vfr VFR
Wind280° at 12 kt
W.Decomp.*RWY 26: 12.0 kt HW 1.0 kt RCW
RWY 30: 9.8 kt HW 6.9 kt LCW
W.Rank280° ranks 1
Current wind is above 280° avg. (10.5)
Visibility9999 m
Phenomena:N/A
Clouds:Few 030 Hf
Few 090 Hf
Scattered 260 Hf
Expected CloudBase > 400 ft AGL from Temp-Dew spread
CeilingNone
Temp-14°C (ISA -25)
Dew Point-15°C (92% RH)
AAT-21.7°C
QNH1018 hPa
Density Alt-1,033 ft
Elevation2,195 ft
Report Wrong Elevation
Raw Report
CYLL 221400Z 28012KT 15SM FEW030 FEW090 SCT260 M14/M15 A3006 RMK
ST1AC1CI1 FROIN SLP239=

Extra information for CYLL:More info

Metar Taf Metar & Taf Last 4 Metars F.Rules Stats Wind Profile Meteogram Temp Stats Airport Information Weather charts Add Link Nearby VenuesMetar ALERT Operation Metar Decoded Social comments